Time;durP1;ratioP1;P1;durP2;ratioP2;P2;SDS_P1;SDS_P2;PMS_P1;PMS_P2;Temp;Humidity;BMP_temperature;BMP_pressure;BME280_temperature;BME280_humidity;BME280_pressure;Samples;Min_cycle;Max_cycle;Signal;HPM_P1;HPM_P2
2022/06/12 00:02:03;;;;;;;5.93;5.20;;;;;;;16.33;78.91;94575.19;5038174;28;20037;-76
2022/06/12 00:04:29;;;;;;;5.60;4.90;;;;;;;16.30;79.16;94557.19;5072602;28;20035;-76
2022/06/12 00:06:54;;;;;;;7.47;5.07;;;;;;;16.36;79.09;94567.00;5037785;28;20474;-76
2022/06/12 00:09:20;;;;;;;5.53;5.03;;;;;;;16.31;79.40;94559.63;5071127;28;20029;-76
2022/06/12 00:11:45;;;;;;;8.88;4.72;;;;;;;16.35;79.37;94560.09;5054580;28;20037;-77
2022/06/12 00:14:11;;;;;;;5.45;4.90;;;;;;;16.30;79.05;94555.38;5071223;28;20048;-76
2022/06/12 00:16:40;;;;;;;8.18;4.75;;;;;;;16.36;79.15;94566.19;5054030;28;20052;-76
2022/06/12 00:19:06;;;;;;;7.18;5.13;;;;;;;16.35;78.09;94562.72;5070902;28;20082;-76
2022/06/12 00:21:31;;;;;;;5.90;5.30;;;;;;;16.31;77.94;94556.19;5038011;28;20036;-76
2022/06/12 00:24:00;;;;;;;10.25;5.03;;;;;;;16.28;77.92;94543.44;5070585;28;20056;-76
2022/06/12 00:26:37;;;;;;;7.10;5.07;;;;;;;16.28;77.26;94541.63;5054314;28;20039;-76
2022/06/12 00:29:08;;;;;;;5.75;5.00;;;;;;;16.17;77.67;94541.97;5071010;28;20030;-76
2022/06/12 00:31:34;;;;;;;7.10;4.90;;;;;;;16.15;78.02;94543.13;5054012;28;20032;-76
2022/06/12 00:34:01;;;;;;;5.88;5.25;;;;;;;16.09;78.15;94540.19;5054511;28;20045;-76
2022/06/12 00:36:27;;;;;;;7.20;6.05;;;;;;;16.13;78.71;94540.69;5054435;28;20032;-76
2022/06/12 00:38:52;;;;;;;6.88;5.97;;;;;;;16.00;78.39;94535.97;5037431;28;20627;-76
2022/06/12 00:41:18;;;;;;;11.90;6.20;;;;;;;16.05;78.84;94549.38;5053574;28;20040;-76
2022/06/12 00:43:43;;;;;;;7.82;5.90;;;;;;;15.99;79.04;94536.97;5054499;28;20033;-76
2022/06/12 00:46:31;;;;;;;7.72;6.10;;;;;;;16.04;79.11;94542.50;5053172;28;20502;-76
2022/06/12 00:48:57;;;;;;;7.00;5.78;;;;;;;16.05;78.63;94554.63;5070572;28;20056;-76
2022/06/12 00:51:22;;;;;;;7.07;6.45;;;;;;;16.03;79.29;94538.25;5070679;28;20056;-76
2022/06/12 00:53:55;;;;;;;7.82;6.18;;;;;;;15.99;79.25;94538.72;5053806;28;20029;-76
2022/06/12 00:56:24;;;;;;;8.90;6.15;;;;;;;16.06;79.47;94550.19;5053757;28;20402;-76
2022/06/12 00:59:00;;;;;;;9.27;6.70;;;;;;;15.98;79.31;94542.34;5070202;28;20148;-76
2022/06/12 01:01:49;;;;;;;9.63;6.72;;;;;;;15.95;79.70;94538.25;5054442;28;20093;-76
2022/06/12 01:07:00;;;;;;;11.20;7.32;;;;;;;16.05;79.72;94544.16;5056380;28;20047;-76
2022/06/12 01:09:28;;;;;;;8.85;6.55;;;;;;;16.00;79.53;94530.72;5036599;28;20490;-76
2022/06/12 01:11:54;;;;;;;9.68;7.13;;;;;;;16.16;79.76;94550.84;5053172;28;20067;-75
2022/06/12 01:14:22;;;;;;;7.40;6.65;;;;;;;16.20;79.74;94546.06;5036806;28;20056;-76
2022/06/12 01:16:48;;;;;;;8.95;6.50;;;;;;;16.20;79.77;94541.63;5069897;28;20041;-76
2022/06/12 01:19:44;;;;;;;8.98;6.80;;;;;;;16.20;79.83;94540.84;5053096;28;20035;-76
2022/06/12 01:22:28;;;;;;;13.05;6.78;;;;;;;16.25;79.58;94543.78;5037108;28;20043;-76
2022/06/12 01:25:02;;;;;;;7.25;6.55;;;;;;;16.25;79.65;94538.53;5071227;28;20138;-76
2022/06/12 01:28:05;;;;;;;8.60;7.30;;;;;;;16.24;79.23;94529.84;5071636;28;20462;-76
2022/06/12 01:30:34;;;;;;;7.63;6.78;;;;;;;16.22;79.39;94533.63;5070727;28;20058;-75
2022/06/12 01:33:05;;;;;;;8.48;7.10;;;;;;;16.21;79.46;94534.59;5070763;28;20021;-76
2022/06/12 01:35:50;;;;;;;9.18;6.70;;;;;;;16.22;78.96;94534.44;5069534;28;20115;-75
2022/06/12 01:38:21;;;;;;;7.90;6.60;;;;;;;16.18;78.96;94511.34;5069628;28;20036;-76
2022/06/12 01:40:52;;;;;;;;;;;;;;;16.27;78.69;94526.91;5070936;28;20033;-76
2022/06/12 01:43:20;;;;;;;;;;;;;;;16.22;78.96;94537.06;5071502;28;19923;-76
2022/06/12 01:45:57;;;;;;;7.75;7.05;;;;;;;16.22;79.12;94539.69;5069326;28;19924;-75
2022/06/12 01:48:45;;;;;;;7.30;6.57;;;;;;;16.21;79.17;94521.50;5070549;28;20039;-75
2022/06/12 01:51:31;;;;;;;7.68;6.65;;;;;;;16.28;79.16;94535.56;5069399;28;20414;-76
2022/06/12 01:53:58;;;;;;;7.80;6.65;;;;;;;16.30;79.09;94533.59;5069574;28;20071;-75
2022/06/12 01:56:50;;;;;;;10.00;6.82;;;;;;;16.31;78.83;94535.22;5068791;28;20083;-75
2022/06/12 01:59:20;;;;;;;7.25;6.53;;;;;;;16.28;78.88;94533.75;5068603;28;20596;-75
2022/06/12 02:01:58;;;;;;;7.90;7.10;;;;;;;16.30;78.62;94534.41;5069127;28;20409;-75
2022/06/12 02:04:30;;;;;;;10.02;7.05;;;;;;;16.27;79.15;94526.09;5068715;28;20106;-76
2022/06/12 02:07:33;;;;;;;6.95;6.25;;;;;;;16.30;78.58;94525.75;5052705;28;20040;-76
2022/06/12 02:10:01;;;;;;;7.28;6.10;;;;;;;16.33;78.83;94525.41;5055862;28;20043;-76
2022/06/12 02:15:33;;;;;;;8.32;5.90;;;;;;;16.24;78.26;94529.00;5055888;28;20043;-75
2022/06/12 02:18:10;;;;;;;8.93;6.07;;;;;;;16.29;78.73;94526.72;5058516;28;20036;-75
2022/06/12 02:20:40;;;;;;;9.77;6.57;;;;;;;16.28;78.77;94522.47;5074252;28;20043;-76
2022/06/12 02:23:09;;;;;;;9.55;5.90;;;;;;;16.28;78.15;94525.91;5056868;28;20078;-75
2022/06/12 02:25:36;;;;;;;6.47;5.88;;;;;;;16.28;78.38;94527.72;5056529;28;20047;-76
2022/06/12 02:28:06;;;;;;;7.38;6.60;;;;;;;16.24;77.98;94529.00;5056675;28;20456;-75
2022/06/12 02:30:34;;;;;;;7.72;6.40;;;;;;;16.29;77.61;94526.72;5073329;28;20486;-75
2022/06/12 02:33:05;;;;;;;8.23;6.22;;;;;;;16.17;77.60;94526.25;5056665;28;20039;-76
2022/06/12 02:35:32;;;;;;;;;;;;;;;16.22;78.13;94525.75;5056361;28;20546;-75
2022/06/12 02:38:07;;;;;;;7.00;6.30;;;;;;;16.15;78.23;94524.78;5056297;28;19923;-75
2022/06/12 02:40:38;;;;;;;9.18;6.40;;;;;;;16.15;77.80;94519.53;5072622;28;20485;-76
2022/06/12 02:43:08;;;;;;;7.68;6.63;;;;;;;16.18;77.66;94520.03;5053172;28;20222;-76
2022/06/12 02:45:46;;;;;;;8.85;6.50;;;;;;;16.20;77.61;94530.34;5069150;28;20260;-76
2022/06/12 02:48:11;;;;;;;8.60;6.43;;;;;;;16.20;77.28;94520.69;5057612;28;20032;-75
2022/06/12 02:50:49;;;;;;;7.85;6.25;;;;;;;16.20;77.01;94522.50;5039109;28;20028;-75
2022/06/12 02:53:34;;;;;;;8.65;6.03;;;;;;;16.05;76.89;94512.72;5056815;28;20107;-75
2022/06/12 02:56:01;;;;;;;7.22;6.55;;;;;;;16.22;77.31;94531.00;5056852;28;20036;-76
2022/06/12 02:58:43;;;;;;;10.48;6.47;;;;;;;16.25;77.40;94538.53;5055434;28;20097;-75
2022/06/12 03:01:12;;;;;;;7.38;6.57;;;;;;;16.20;77.23;94523.28;5072568;28;20063;-75
2022/06/12 03:03:51;;;;;;;8.43;6.20;;;;;;;16.29;77.41;94537.19;5055893;28;20040;-75
2022/06/12 03:06:17;;;;;;;7.40;6.50;;;;;;;16.19;77.79;94528.72;5072034;28;20029;-75
2022/06/12 03:08:46;;;;;;;11.85;7.13;;;;;;;16.19;77.67;94545.25;5055811;28;20020;-75
2022/06/12 03:11:26;;;;;;;8.77;6.50;;;;;;;16.05;77.63;94517.94;5038808;28;20517;-76
2022/06/12 03:13:52;;;;;;;7.53;6.47;;;;;;;16.19;77.31;94529.53;5043373;28;20031;-76
2022/06/12 03:16:24;;;;;;;7.15;5.97;;;;;;;16.24;77.12;94542.13;5055825;28;20039;-76
2022/06/12 03:18:55;;;;;;;9.07;6.65;;;;;;;16.22;77.00;94529.19;5073183;28;20506;-76
2022/06/12 03:21:30;;;;;;;8.38;6.18;;;;;;;16.27;76.66;94536.56;5055696;28;20032;-76
2022/06/12 03:24:21;;;;;;;7.13;6.22;;;;;;;16.11;77.07;94521.69;5073471;28;20033;-76
2022/06/12 03:26:52;;;;;;;10.05;6.80;;;;;;;16.12;77.07;94527.75;5071368;28;20151;-75
2022/06/12 03:29:36;;;;;;;;;;;;;;;16.19;77.22;94534.78;5071991;28;20047;-76
2022/06/12 03:32:14;;;;;;;8.70;6.60;;;;;;;16.17;77.29;94541.16;5073219;28;19963;-75
2022/06/12 03:34:45;;;;;;;6.88;6.22;;;;;;;16.19;77.55;94528.72;5072945;28;20086;-76
2022/06/12 03:37:14;;;;;;;7.85;6.18;;;;;;;16.19;77.34;94529.53;5073274;28;20033;-76
2022/06/12 03:39:43;;;;;;;7.65;6.88;;;;;;;16.23;77.70;94533.44;5038912;28;20039;-75
2022/06/12 03:42:37;;;;;;;9.77;6.40;;;;;;;16.20;77.36;94531.16;5054689;28;20066;-75
2022/06/12 03:45:42;;;;;;;7.57;6.68;;;;;;;16.19;76.87;94533.97;5065809;28;20044;-75
2022/06/12 03:48:45;;;;;;;6.82;6.13;;;;;;;16.23;76.85;94538.69;5038548;28;20060;-75
2022/06/12 03:51:36;;;;;;;8.18;6.57;;;;;;;16.22;76.99;94528.38;5034447;28;20044;-75
2022/06/12 03:54:25;;;;;;;7.43;6.55;;;;;;;16.19;76.96;94534.78;5069456;28;20047;-75
2022/06/12 04:00:16;;;;;;;7.28;6.53;;;;;;;16.28;77.29;94519.84;5072028;28;20480;-75
2022/06/12 04:02:42;;;;;;;8.00;7.20;;;;;;;16.19;76.98;94528.72;5071379;28;20032;-75
2022/06/12 04:05:08;;;;;;;7.07;6.32;;;;;;;16.26;76.99;94537.53;5054215;28;20093;-75
2022/06/12 04:07:35;;;;;;;7.25;6.50;;;;;;;16.22;76.25;94529.19;5054567;28;20111;-75
2022/06/12 04:10:02;;;;;;;8.98;6.43;;;;;;;16.31;76.81;94540.47;5037893;28;20093;-76
2022/06/12 04:12:30;;;;;;;7.03;6.43;;;;;;;16.38;76.79;94541.44;5054764;28;20039;-75
2022/06/12 04:15:19;;;;;;;7.63;6.68;;;;;;;16.43;76.97;94541.72;5071243;28;20066;-75
2022/06/12 04:17:44;;;;;;;8.00;6.60;;;;;;;16.38;76.76;94528.34;5070788;28;20048;-76
2022/06/12 04:20:13;;;;;;;9.02;6.60;;;;;;;16.41;76.79;94528.00;5037749;28;20040;-75
2022/06/12 04:22:46;;;;;;;7.28;6.30;;;;;;;16.52;76.68;94556.47;5054841;28;20058;-76
2022/06/12 04:25:41;;;;;;;7.95;6.28;;;;;;;16.42;74.83;94555.84;5054421;28;20497;-76
2022/06/12 04:28:27;;;;;;;8.65;6.57;;;;;;;16.43;75.53;94556.66;5069791;28;20041;-76
2022/06/12 04:30:53;;;;;;;7.32;6.63;;;;;;;16.36;75.56;94556.50;5070910;28;20039;-75
2022/06/12 04:33:36;;;;;;;7.28;6.57;;;;;;;16.35;75.47;94565.34;5054111;28;20499;-75
2022/06/12 04:36:03;;;;;;;7.88;6.53;;;;;;;16.36;75.76;94561.75;5058281;28;20032;-75
2022/06/12 04:38:30;;;;;;;9.00;6.88;;;;;;;16.34;75.68;94553.22;5070292;28;20111;-76
2022/06/12 04:40:55;;;;;;;7.43;6.72;;;;;;;16.29;75.88;94547.69;5070783;28;20454;-77
2022/06/12 04:43:21;;;;;;;8.02;7.20;;;;;;;16.39;75.90;94563.22;5054202;28;20034;-75
2022/06/12 04:45:47;;;;;;;7.57;6.85;;;;;;;16.37;75.75;94552.91;5053160;28;20029;-76
2022/06/12 04:48:15;;;;;;;8.60;7.43;;;;;;;16.46;75.74;94566.78;5054012;28;20104;-76
2022/06/12 04:50:41;;;;;;;8.32;6.60;;;;;;;16.44;75.32;94564.34;5053754;28;20112;-76
2022/06/12 04:53:07;;;;;;;7.68;6.95;;;;;;;16.39;75.85;94561.41;5053714;28;20510;-77
2022/06/12 04:55:33;;;;;;;12.32;7.85;;;;;;;16.40;75.99;94562.22;5036879;28;20036;-76
2022/06/12 04:58:00;;;;;;;7.88;7.18;;;;;;;16.44;75.82;94572.22;5053364;28;20051;-75
2022/06/12 05:00:28;;;;;;;9.25;8.23;;;;;;;16.42;75.91;94563.69;5068958;28;20111;-76
2022/06/12 05:02:54;;;;;;;8.18;7.38;;;;;;;16.44;75.79;94560.91;5066119;28;20513;-75
2022/06/12 05:05:19;;;;;;;9.20;8.30;;;;;;;16.47;76.00;94574.50;5027963;28;20013;-76
2022/06/12 05:07:45;;;;;;;9.15;8.25;;;;;;;16.40;75.74;94570.91;5046666;28;20029;-76
2022/06/12 05:10:13;;;;;;;9.38;7.93;;;;;;;16.47;75.74;94578.94;5065209;28;20345;-76
2022/06/12 05:12:38;;;;;;;8.93;8.13;;;;;;;16.51;75.54;94575.78;5053255;28;20051;-76
2022/06/12 05:15:04;;;;;;;9.13;8.20;;;;;;;16.50;76.37;94565.47;5070315;28;20494;-76
2022/06/12 05:17:30;;;;;;;8.98;8.07;;;;;;;16.36;75.93;94558.31;5069751;28;20043;-76
2022/06/12 05:19:56;;;;;;;9.15;8.25;;;;;;;16.49;76.10;94572.53;5069513;28;20476;-76
2022/06/12 05:22:23;;;;;;;9.52;7.97;;;;;;;16.54;75.83;94575.44;5048483;28;20028;-76
2022/06/12 05:24:49;;;;;;;8.65;7.80;;;;;;;16.48;75.73;94565.63;5064661;28;20021;-77
2022/06/12 05:27:16;;;;;;;8.68;7.78;;;;;;;16.52;75.90;94568.75;5068468;28;20036;-76
2022/06/12 05:29:42;;;;;;;8.32;7.53;;;;;;;16.54;75.56;94578.06;5049717;28;20036;-77
2022/06/12 05:32:09;;;;;;;9.25;7.90;;;;;;;16.58;75.56;94575.13;5051208;28;20024;-76
2022/06/12 05:34:35;;;;;;;10.15;8.23;;;;;;;16.65;75.49;94576.88;5053480;28;20033;-77
2022/06/12 05:37:01;;;;;;;9.65;7.78;;;;;;;16.74;75.45;94580.28;5066452;28;20130;-76
2022/06/12 05:39:27;;;;;;;8.32;7.63;;;;;;;16.76;74.94;94583.56;5050964;28;20385;-75
2022/06/12 05:41:52;;;;;;;8.75;7.68;;;;;;;16.85;74.57;94587.81;5046731;28;20032;-77
2022/06/12 05:44:18;;;;;;;7.68;6.97;;;;;;;16.88;74.62;94592.75;5048991;28;20058;-75
2022/06/12 05:46:44;;;;;;;8.00;7.20;;;;;;;16.90;74.50;94590.75;5047810;28;20048;-74
2022/06/12 05:49:10;;;;;;;7.97;7.13;;;;;;;16.82;73.76;94587.34;5067868;28;20028;-74
2022/06/12 05:51:35;;;;;;;7.97;6.95;;;;;;;16.92;73.96;94598.47;5065571;28;20036;-75
2022/06/12 05:54:01;;;;;;;9.27;6.35;;;;;;;16.95;74.56;94598.94;5059872;28;20035;-75
2022/06/12 05:56:27;;;;;;;8.75;7.22;;;;;;;17.03;74.27;94595.44;5065329;28;20048;-74
2022/06/12 05:58:53;;;;;;;7.82;7.13;;;;;;;17.07;74.79;94606.41;5034839;28;20035;-74
2022/06/12 06:01:19;;;;;;;8.05;7.25;;;;;;;17.00;75.14;94594.97;5069677;28;20029;-74
2022/06/12 06:03:45;;;;;;;7.60;6.90;;;;;;;17.00;74.09;94601.03;5053334;28;20044;-74
2022/06/12 06:06:13;;;;;;;8.32;7.53;;;;;;;17.02;74.15;94603.47;5067676;28;20411;-75
2022/06/12 06:08:39;;;;;;;7.90;7.20;;;;;;;17.09;73.78;94612.31;5045313;28;20035;-73
2022/06/12 06:11:06;;;;;;;8.70;7.78;;;;;;;17.10;74.40;94611.31;5067287;28;20028;-73
2022/06/12 06:13:32;;;;;;;8.20;7.40;;;;;;;17.07;75.13;94606.41;5063792;28;20052;-74
2022/06/12 06:15:57;;;;;;;10.13;7.38;;;;;;;17.12;75.45;94614.59;5047749;28;20040;-73
2022/06/12 06:18:23;;;;;;;8.93;8.02;;;;;;;17.10;76.11;94612.13;5027464;28;20116;-74
2022/06/12 06:20:48;;;;;;;9.55;7.97;;;;;;;17.13;75.92;94621.47;5050850;28;20123;-75
2022/06/12 06:23:14;;;;;;;9.07;7.85;;;;;;;17.14;76.11;94617.88;5051721;28;20037;-76
2022/06/12 06:25:40;;;;;;;9.20;8.32;;;;;;;17.15;76.10;94627.38;5066258;28;20036;-75
2022/06/12 06:28:06;;;;;;;9.23;8.32;;;;;;;17.13;75.90;94624.09;5063167;28;20426;-78
2022/06/12 06:30:34;;;;;;;9.02;8.10;;;;;;;17.18;75.71;94632.28;5064935;28;20088;-78
2022/06/12 06:33:00;;;;;;;9.55;8.65;;;;;;;17.19;75.91;94631.31;5068744;28;20033;-75
2022/06/12 06:35:28;;;;;;;10.05;8.68;;;;;;;17.19;75.75;94642.63;5068805;28;20402;-78
2022/06/12 06:37:54;;;;;;;10.05;9.05;;;;;;;17.24;75.56;94644.69;5065685;28;20517;-77
2022/06/12 06:40:21;;;;;;;11.25;9.90;;;;;;;17.20;76.14;94633.72;5068817;28;20021;-75
2022/06/12 06:42:46;;;;;;;10.57;9.45;;;;;;;17.27;76.25;94652.22;5069950;28;20437;-75
2022/06/12 06:47:57;;;;;;;10.88;9.77;;;;;;;17.31;76.99;94657.97;5068246;28;20090;-75
2022/06/12 06:50:22;;;;;;;10.85;9.75;;;;;;;17.36;76.75;94661.72;5052240;28;20040;-76
2022/06/12 06:52:48;;;;;;;10.60;9.50;;;;;;;17.38;77.18;94661.53;5068903;28;20032;-77
2022/06/12 06:55:13;;;;;;;11.75;9.35;;;;;;;17.40;77.38;94660.38;5032111;28;20028;-74
2022/06/12 06:57:41;;;;;;;10.73;9.45;;;;;;;17.37;77.15;94658.09;5045224;28;20056;-75
2022/06/12 07:00:08;;;;;;;10.60;9.50;;;;;;;17.35;77.49;94660.06;5051855;28;20034;-80
2022/06/12 07:02:33;;;;;;;10.90;9.82;;;;;;;17.33;77.87;94654.19;5036618;28;20028;-73
2022/06/12 07:04:59;;;;;;;11.48;10.07;;;;;;;17.37;77.76;94659.91;5073191;28;20387;-76
2022/06/12 07:07:24;;;;;;;11.30;10.15;;;;;;;17.38;77.41;94661.53;5073729;28;20495;-77
2022/06/12 07:09:50;;;;;;;12.38;10.35;;;;;;;17.41;77.93;94662.03;5072653;28;20033;-75
2022/06/12 07:12:16;;;;;;;11.02;9.90;;;;;;;17.43;77.79;94665.28;5073501;28;20040;-76
2022/06/12 07:14:41;;;;;;;11.10;10.05;;;;;;;17.53;77.02;94659.00;5072904;28;20032;-78
2022/06/12 07:17:07;;;;;;;11.02;9.93;;;;;;;17.55;77.10;94660.47;5073681;28;20035;-81
2022/06/12 07:19:33;;;;;;;13.13;11.57;;;;;;;17.59;77.47;94663.56;5072633;28;20035;-75
2022/06/12 07:21:58;;;;;;;11.75;9.27;;;;;;;17.61;76.63;94662.41;5072630;28;20021;-77
2022/06/12 07:24:24;;;;;;;10.85;9.85;;;;;;;17.55;77.03;94651.75;5073155;28;20032;-79
2022/06/12 07:26:50;;;;;;;10.60;9.55;;;;;;;17.59;76.94;94672.25;5072028;28;20068;-76
2022/06/12 07:29:17;;;;;;;10.63;9.63;;;;;;;17.65;77.65;94665.47;5073237;28;20028;-73
2022/06/12 07:31:43;;;;;;;12.00;10.02;;;;;;;17.63;78.13;94662.22;5073231;28;20037;-77
2022/06/12 07:34:09;;;;;;;10.10;9.20;;;;;;;17.71;78.39;94674.47;5072744;28;20032;-75
2022/06/12 07:36:38;;;;;;;10.45;9.35;;;;;;;17.60;78.27;94649.44;5071706;28;20044;-80
2022/06/12 07:39:05;;;;;;;10.00;8.88;;;;;;;17.71;77.36;94664.78;5038535;28;20116;-75
2022/06/12 07:41:30;;;;;;;12.55;9.48;;;;;;;17.73;78.38;94665.44;5071572;28;20071;-76
2022/06/12 07:43:56;;;;;;;10.52;9.43;;;;;;;17.75;77.99;94679.22;5072757;28;20071;-78
2022/06/12 07:46:21;;;;;;;11.70;9.57;;;;;;;17.79;77.78;94675.28;5072250;28;20035;-76
2022/06/12 07:48:47;;;;;;;9.57;8.60;;;;;;;17.75;77.45;94673.97;5073128;28;20032;-77
2022/06/12 07:51:16;;;;;;;10.15;9.23;;;;;;;17.70;77.89;94671.03;5071075;28;20039;-76
2022/06/12 07:53:42;;;;;;;10.27;8.80;;;;;;;17.75;77.67;94668.72;5071011;28;20029;-79
2022/06/12 07:56:08;;;;;;;9.85;8.52;;;;;;;17.83;77.75;94681.81;5071338;28;20028;-76
2022/06/12 07:58:34;;;;;;;10.75;8.80;;;;;;;17.81;77.96;94683.81;5053094;28;20473;-76
2022/06/12 08:01:01;;;;;;;9.68;8.25;;;;;;;17.83;77.79;94681.00;5067627;28;20108;-76
2022/06/12 08:03:27;;;;;;;10.75;8.65;;;;;;;17.77;77.87;94681.66;5071762;28;20428;-76
2022/06/12 08:05:53;;;;;;;8.75;7.95;;;;;;;17.82;78.48;94684.63;5054812;28;20032;-76
2022/06/12 08:08:19;;;;;;;8.60;7.80;;;;;;;17.77;79.00;94677.22;5071295;28;20406;-76
2022/06/12 08:10:44;;;;;;;10.73;8.55;;;;;;;17.81;78.69;94677.75;5054175;28;20052;-76
2022/06/12 08:13:13;;;;;;;8.77;7.60;;;;;;;17.89;78.55;94679.50;5070632;28;20032;-76
2022/06/12 08:15:40;;;;;;;8.30;7.50;;;;;;;17.89;79.09;94688.19;5071056;28;20032;-75
2022/06/12 08:18:06;;;;;;;9.05;8.25;;;;;;;17.95;78.83;94694.56;5070925;28;20032;-81
2022/06/12 08:20:32;;;;;;;8.50;7.60;;;;;;;17.92;78.95;94679.16;5071642;28;20379;-76
2022/06/12 08:23:02;;;;;;;8.70;7.45;;;;;;;17.72;78.96;94642.78;5061006;28;20537;-79
2022/06/12 08:25:28;;;;;;;8.47;7.67;;;;;;;18.02;78.62;94695.47;5065022;28;20075;-79
2022/06/12 08:27:54;;;;;;;8.52;7.63;;;;;;;18.01;78.69;94693.84;5064839;28;20052;-81
2022/06/12 08:30:20;;;;;;;8.20;7.40;;;;;;;18.11;78.65;94694.44;5068984;28;20029;-77
2022/06/12 08:32:46;;;;;;;8.10;7.30;;;;;;;17.98;78.00;94667.94;5069535;28;20026;-78
2022/06/12 08:35:19;;;;;;;8.50;7.65;;;;;;;18.19;77.97;94697.00;5070409;28;20043;-77
2022/06/12 08:37:44;;;;;;;8.02;7.22;;;;;;;18.17;77.71;94680.59;5070773;28;20111;-80
2022/06/12 08:40:25;;;;;;;10.95;9.05;;;;;;;18.30;78.10;94690.50;5053252;28;20111;-76
2022/06/12 08:42:56;;;;;;;;;;;;;;;18.33;77.90;94684.91;5068026;28;20032;-75
2022/06/12 08:45:23;;;;;;;;;;;;;;;18.33;78.12;94689.31;5062082;28;19963;-76
2022/06/12 08:48:05;;;;;;;10.15;7.47;;;;;;;18.31;77.76;94684.25;5072085;28;19989;-75
2022/06/12 08:50:40;;;;;;;9.60;7.78;;;;;;;18.34;77.87;94677.81;5052084;28;20044;-76
2022/06/12 08:53:32;;;;;;;8.30;7.50;;;;;;;18.12;78.37;94640.06;5067851;28;20530;-77
2022/06/12 08:56:16;;;;;;;9.77;7.68;;;;;;;18.23;78.17;94650.94;5080231;28;20032;-76
2022/06/12 08:58:56;;;;;;;7.57;6.88;;;;;;;18.19;76.76;94649.69;5057097;28;20040;-77
2022/06/12 09:01:21;;;;;;;8.50;7.70;;;;;;;18.44;76.78;94695.00;5067531;28;20048;-76
2022/06/12 09:03:50;;;;;;;8.30;7.50;;;;;;;18.49;77.08;94692.63;5068719;28;20398;-75
2022/06/12 09:06:47;;;;;;;8.65;7.75;;;;;;;18.50;76.77;94689.00;5070810;28;20040;-76
2022/06/12 09:09:24;;;;;;;9.13;8.20;;;;;;;18.54;77.83;94689.47;5068359;28;20502;-76
2022/06/12 09:12:08;;;;;;;8.88;8.07;;;;;;;18.42;77.76;94664.59;5080817;28;20075;-76
2022/06/12 09:14:55;;;;;;;9.52;8.52;;;;;;;18.62;78.39;94693.84;5043834;28;20108;-76
2022/06/12 09:17:43;;;;;;;9.30;8.05;;;;;;;18.46;78.84;94658.78;5060722;28;20035;-76
2022/06/12 09:20:15;;;;;;;9.95;7.97;;;;;;;18.68;78.11;94696.56;5042371;28;20029;-76
2022/06/12 09:23:31;;;;;;;10.40;7.93;;;;;;;18.70;78.02;94688.50;5058766;28;20040;-74
2022/06/12 09:26:12;;;;;;;8.60;7.80;;;;;;;18.72;76.42;94692.59;5042326;28;20082;-76
2022/06/12 09:28:46;;;;;;;8.13;7.25;;;;;;;18.53;75.38;94657.09;5045128;28;20109;-76
2022/06/12 09:31:19;;;;;;;10.57;7.07;;;;;;;18.86;74.54;94705.94;5043610;28;20033;-76
2022/06/12 09:33:48;;;;;;;8.55;7.55;;;;;;;18.86;74.41;94695.41;5059676;28;20350;-77
2022/06/12 09:36:26;;;;;;;8.27;7.40;;;;;;;18.95;74.75;94705.69;5060806;28;20165;-76
2022/06/12 09:39:28;;;;;;;8.30;7.20;;;;;;;18.94;74.18;94700.59;5063469;28;20020;-76
2022/06/12 09:42:09;;;;;;;8.05;7.22;;;;;;;19.08;73.17;94691.06;5049776;28;20598;-76
2022/06/12 09:44:59;;;;;;;7.80;7.00;;;;;;;19.16;74.13;94701.50;5044513;28;20048;-76
2022/06/12 09:47:24;;;;;;;9.23;7.05;;;;;;;19.25;73.92;94707.50;5060240;28;20041;-76
2022/06/12 09:49:52;;;;;;;8.20;7.40;;;;;;;19.31;75.01;94704.16;5059071;28;20043;-75
2022/06/12 09:52:18;;;;;;;8.07;7.28;;;;;;;19.38;74.05;94699.75;5059410;28;20098;-76
2022/06/12 09:55:31;;;;;;;8.98;7.43;;;;;;;19.38;73.81;94694.50;5062027;28;20518;-74
2022/06/12 09:58:20;;;;;;;8.43;7.07;;;;;;;19.38;74.30;94694.50;5017720;28;20056;-73
2022/06/12 10:00:50;;;;;;;7.72;6.97;;;;;;;19.39;74.38;94686.44;5044251;28;20102;-75
2022/06/12 10:03:18;;;;;;;7.88;7.07;;;;;;;19.42;73.04;94699.22;5064535;28;20028;-75
2022/06/12 10:06:00;;;;;;;7.82;7.13;;;;;;;19.34;72.76;94696.69;5060024;28;20047;-75
2022/06/12 10:08:38;;;;;;;8.95;6.80;;;;;;;19.34;73.49;94690.59;5060667;28;20033;-75
2022/06/12 10:11:14;;;;;;;8.85;6.30;;;;;;;19.39;74.02;94696.16;5034671;28;20040;-76
2022/06/12 10:14:16;;;;;;;8.93;8.05;;;;;;;19.34;74.55;94683.53;5063482;28;20035;-81
2022/06/12 10:16:51;;;;;;;7.20;6.50;;;;;;;19.25;74.58;94676.72;5051753;28;20453;-76
2022/06/12 10:19:33;;;;;;;7.38;6.35;;;;;;;19.32;74.41;94698.69;5067123;28;20063;-77
2022/06/12 10:22:09;;;;;;;8.73;6.50;;;;;;;19.26;72.88;94685.44;5064143;28;20032;-78
2022/06/12 10:24:34;;;;;;;7.28;6.47;;;;;;;19.29;72.94;94687.72;5057513;28;20035;-78
2022/06/12 10:27:08;;;;;;;7.18;6.45;;;;;;;19.34;74.50;94690.59;5066946;28;20041;-75
2022/06/12 10:30:03;;;;;;;9.48;6.78;;;;;;;19.22;73.67;94666.53;5063529;28;20413;-76
2022/06/12 10:32:48;;;;;;;8.32;7.28;;;;;;;19.31;74.97;94675.19;5056366;28;20060;-78
2022/06/12 10:35:15;;;;;;;6.55;5.90;;;;;;;19.35;72.12;94684.34;5051546;28;20032;-77
2022/06/12 10:37:41;;;;;;;8.02;5.93;;;;;;;19.29;70.51;94674.53;5071783;28;20024;-77
2022/06/12 10:40:23;;;;;;;6.25;5.75;;;;;;;19.30;70.60;94678.78;5072837;28;20454;-80
2022/06/12 10:43:10;;;;;;;8.00;6.05;;;;;;;19.31;70.93;94686.53;5070849;28;20025;-74
2022/06/12 10:45:37;;;;;;;7.53;6.20;;;;;;;19.35;72.68;94681.69;5061763;28;20028;-76
2022/06/12 10:48:24;;;;;;;7.03;6.32;;;;;;;19.41;73.83;94686.22;5073206;28;20031;-75
2022/06/12 10:50:57;;;;;;;8.35;6.40;;;;;;;19.51;74.87;94686.75;5072008;28;20035;-76
2022/06/12 10:53:25;;;;;;;6.80;6.07;;;;;;;19.39;74.00;94660.09;5072723;28;20024;-76
2022/06/12 10:56:05;;;;;;;7.72;5.78;;;;;;;19.48;71.61;94659.97;5072147;28;20025;-80
2022/06/12 10:58:49;;;;;;;6.40;5.80;;;;;;;19.66;74.21;94678.84;5070495;28;20044;-83
2022/06/12 11:01:18;;;;;;;6.68;6.05;;;;;;;19.68;72.37;94678.66;5047357;28;20036;-76
2022/06/12 11:04:19;;;;;;;6.80;6.05;;;;;;;19.70;75.40;94674.03;5066833;28;20032;-76
2022/06/12 11:07:03;;;;;;;7.32;5.97;;;;;;;19.79;72.39;94675.53;5071830;28;20048;-77
2022/06/12 11:09:43;;;;;;;6.72;5.85;;;;;;;19.80;73.09;94672.72;5072681;28;20035;-74
2022/06/12 11:12:42;;;;;;;7.25;6.00;;;;;;;19.87;69.70;94672.78;5071783;28;20491;-81
2022/06/12 11:15:16;;;;;;;6.70;6.00;;;;;;;19.86;68.40;94668.50;5049880;28;20474;-77
2022/06/12 11:17:44;;;;;;;7.32;6.35;;;;;;;19.90;71.32;94675.03;5073592;28;20040;-75
2022/06/12 11:20:31;;;;;;;9.70;7.80;;;;;;;19.97;72.15;94673.28;5072225;28;20553;-76
2022/06/12 11:23:07;;;;;;;6.90;6.20;;;;;;;20.04;68.61;94676.00;5068426;28;20036;-74
2022/06/12 11:25:50;;;;;;;6.53;5.93;;;;;;;20.17;71.21;94672.66;5070524;28;20405;-76
2022/06/12 11:28:25;;;;;;;6.47;5.88;;;;;;;20.25;67.89;94672.50;5070423;28;20035;-76
2022/06/12 11:31:11;;;;;;;6.63;5.80;;;;;;;20.09;68.87;94642.78;5070572;28;20063;-77
2022/06/12 11:33:39;;;;;;;6.07;5.55;;;;;;;20.31;65.58;94669.13;5072946;28;20091;-80
2022/06/12 11:36:11;;;;;;;7.10;6.40;;;;;;;20.39;67.05;94674.25;5068419;28;20111;-80
2022/06/12 11:38:49;;;;;;;7.00;5.80;;;;;;;20.40;65.53;94675.09;5068522;28;20302;-79
2022/06/12 11:41:26;;;;;;;5.75;5.20;;;;;;;20.47;64.64;94673.31;5056538;28;20036;-78
2022/06/12 11:44:15;;;;;;;8.23;5.85;;;;;;;20.52;67.73;94674.38;5073130;28;20029;-79
2022/06/12 11:46:46;;;;;;;6.78;5.70;;;;;;;20.56;65.37;94661.66;5072133;28;20047;-80
2022/06/12 11:49:21;;;;;;;6.03;5.50;;;;;;;20.37;63.72;94639.34;5071390;28;20071;-77
2022/06/12 11:51:51;;;;;;;7.88;6.60;;;;;;;20.53;64.92;94673.41;5055534;28;20052;-76
2022/06/12 11:54:35;;;;;;;8.00;5.73;;;;;;;20.59;64.17;94663.06;5071959;28;20587;-80
2022/06/12 11:57:16;;;;;;;7.40;5.72;;;;;;;20.60;65.27;94654.16;5071793;28;20068;-80
2022/06/12 12:00:12;;;;;;;6.32;5.65;;;;;;;20.50;64.12;94643.91;5055743;28;20543;-79
2022/06/12 12:02:54;;;;;;;5.57;5.00;;;;;;;20.64;62.01;94650.94;5055915;28;20579;-77
2022/06/12 12:06:07;;;;;;;6.38;5.47;;;;;;;20.70;64.94;94654.66;5072219;28;20025;-84
2022/06/12 12:08:57;;;;;;;6.40;5.63;;;;;;;20.81;64.14;94648.81;5025790;28;20041;-74
2022/06/12 12:11:34;;;;;;;6.05;5.45;;;;;;;20.88;66.59;94643.56;5072255;28;20037;-74
2022/06/12 12:14:03;;;;;;;6.72;5.30;;;;;;;20.99;64.99;94643.03;5037512;28;20021;-74